sensor_id;sensor_type;location;lat;lon;timestamp;pressure;altitude;pressure_sealevel;temperature;humidity
25650;BME280;13505;45.196;5.696;2022-10-28T04:03:17;100151.22;;;15.03;100.00
25650;BME280;13505;45.196;5.696;2022-10-28T04:08:08;100140.81;;;14.99;100.00
25650;BME280;13505;45.196;5.696;2022-10-28T04:13:00;100153.75;;;15.24;100.00
25650;BME280;13505;45.196;5.696;2022-10-28T04:17:50;100156.00;;;15.14;99.55
25650;BME280;13505;45.196;5.696;2022-10-28T04:22:41;100170.66;;;15.04;100.00
25650;BME280;13505;45.196;5.696;2022-10-28T04:27:31;100168.22;;;14.99;100.00
25650;BME280;13505;45.196;5.696;2022-10-28T04:32:21;100165.34;;;15.04;100.00
25650;BME280;13505;45.196;5.696;2022-10-28T04:37:12;100174.97;;;15.06;99.40
25650;BME280;13505;45.196;5.696;2022-10-28T04:42:02;100175.13;;;15.03;98.00
25650;BME280;13505;45.196;5.696;2022-10-28T04:46:54;100177.06;;;15.00;97.63
25650;BME280;13505;45.196;5.696;2022-10-28T04:51:45;100183.19;;;14.83;97.55
25650;BME280;13505;45.196;5.696;2022-10-28T04:56:35;100191.22;;;14.81;98.55
25650;BME280;13505;45.196;5.696;2022-10-28T05:01:26;100176.06;;;14.83;98.61
25650;BME280;13505;45.196;5.696;2022-10-28T05:06:16;100168.94;;;14.64;100.00
25650;BME280;13505;45.196;5.696;2022-10-28T05:11:06;100169.59;;;14.70;100.00
25650;BME280;13505;45.196;5.696;2022-10-28T05:15:57;100173.63;;;14.59;100.00
25650;BME280;13505;45.196;5.696;2022-10-28T05:20:47;100174.25;;;14.64;100.00
25650;BME280;13505;45.196;5.696;2022-10-28T05:25:41;100164.16;;;14.54;100.00
25650;BME280;13505;45.196;5.696;2022-10-28T05:30:32;100159.34;;;14.62;100.00
25650;BME280;13505;45.196;5.696;2022-10-28T05:35:22;100175.06;;;14.67;100.00
25650;BME280;13505;45.196;5.696;2022-10-28T05:40:12;100168.88;;;14.66;100.00
25650;BME280;13505;45.196;5.696;2022-10-28T05:45:03;100180.97;;;14.73;100.00
25650;BME280;13505;45.196;5.696;2022-10-28T05:49:53;100171.59;;;15.03;100.00
25650;BME280;13505;45.196;5.696;2022-10-28T05:54:44;100177.19;;;15.16;97.36
25650;BME280;13505;45.196;5.696;2022-10-28T05:59:34;100177.13;;;15.35;96.69
25650;BME280;13505;45.196;5.696;2022-10-28T06:04:24;100177.91;;;15.37;95.22
25650;BME280;13505;45.196;5.696;2022-10-28T06:09:14;100174.28;;;15.38;93.53
25650;BME280;13505;45.196;5.696;2022-10-28T06:14:05;100178.06;;;15.34;94.27
25650;BME280;13505;45.196;5.696;2022-10-28T06:18:55;100169.53;;;15.27;93.20
25650;BME280;13505;45.196;5.696;2022-10-28T06:23:45;100188.03;;;15.11;93.36
25650;BME280;13505;45.196;5.696;2022-10-28T06:28:36;100184.09;;;15.01;95.42
25650;BME280;13505;45.196;5.696;2022-10-28T06:33:26;100176.69;;;14.69;96.99
25650;BME280;13505;45.196;5.696;2022-10-28T06:38:16;100173.97;;;14.71;97.83
25650;BME280;13505;45.196;5.696;2022-10-28T06:43:08;100178.16;;;14.76;97.76
25650;BME280;13505;45.196;5.696;2022-10-28T06:48:01;100178.81;;;14.82;97.23
25650;BME280;13505;45.196;5.696;2022-10-28T06:52:54;100190.56;;;14.76;96.68
25650;BME280;13505;45.196;5.696;2022-10-28T06:57:45;100200.19;;;14.78;96.79
25650;BME280;13505;45.196;5.696;2022-10-28T07:02:35;100202.03;;;14.96;96.64
25650;BME280;13505;45.196;5.696;2022-10-28T07:07:26;100208.84;;;15.20;94.33
25650;BME280;13505;45.196;5.696;2022-10-28T07:12:16;100218.47;;;15.41;93.18
25650;BME280;13505;45.196;5.696;2022-10-28T07:17:06;100222.19;;;15.56;91.69
25650;BME280;13505;45.196;5.696;2022-10-28T07:21:57;100234.56;;;15.74;90.00
25650;BME280;13505;45.196;5.696;2022-10-28T07:26:47;100235.81;;;15.85;89.49
25650;BME280;13505;45.196;5.696;2022-10-28T07:31:38;100241.22;;;16.01;88.20
25650;BME280;13505;45.196;5.696;2022-10-28T07:36:28;100239.03;;;16.09;86.93
25650;BME280;13505;45.196;5.696;2022-10-28T07:41:20;100241.06;;;16.04;87.53
25650;BME280;13505;45.196;5.696;2022-10-28T07:46:11;100243.84;;;16.18;86.09
25650;BME280;13505;45.196;5.696;2022-10-28T07:51:03;100245.66;;;16.36;84.44
25650;BME280;13505;45.196;5.696;2022-10-28T07:56:01;100251.88;;;16.52;83.29
25650;BME280;13505;45.196;5.696;2022-10-28T08:00:51;100254.88;;;16.62;82.53
25650;BME280;13505;45.196;5.696;2022-10-28T08:05:42;100259.19;;;16.65;84.33
25650;BME280;13505;45.196;5.696;2022-10-28T08:10:33;100260.13;;;16.64;84.80
25650;BME280;13505;45.196;5.696;2022-10-28T08:15:23;100254.88;;;16.62;84.54
25650;BME280;13505;45.196;5.696;2022-10-28T08:20:14;100259.06;;;16.84;83.61
25650;BME280;13505;45.196;5.696;2022-10-28T08:25:05;100263.81;;;17.11;82.31
25650;BME280;13505;45.196;5.696;2022-10-28T08:29:55;100265.06;;;17.52;81.15
25650;BME280;13505;45.196;5.696;2022-10-28T08:34:45;100248.91;;;17.85;79.21
25650;BME280;13505;45.196;5.696;2022-10-28T08:39:36;100253.66;;;18.11;76.93
25650;BME280;13505;45.196;5.696;2022-10-28T08:49:31;100265.34;;;18.53;73.93
25650;BME280;13505;45.196;5.696;2022-10-28T08:59:28;100260.50;;;19.17;71.88
25650;BME280;13505;45.196;5.696;2022-10-28T09:04:32;100243.25;;;19.08;70.80
25650;BME280;13505;45.196;5.696;2022-10-28T09:09:25;100245.41;;;19.71;69.32
25650;BME280;13505;45.196;5.696;2022-10-28T09:14:28;100242.59;;;20.00;67.94
25650;BME280;13505;45.196;5.696;2022-10-28T09:24:53;100228.88;;;20.17;63.22
25650;BME280;13505;45.196;5.696;2022-10-28T09:29:57;100235.56;;;19.84;62.40
25650;BME280;13505;45.196;5.696;2022-10-28T09:34:59;100241.31;;;19.65;64.07
25650;BME280;13505;45.196;5.696;2022-10-28T09:40:19;100242.91;;;19.55;64.95
25650;BME280;13505;45.196;5.696;2022-10-28T09:45:15;100253.28;;;19.59;64.29
25650;BME280;13505;45.196;5.696;2022-10-28T09:50:16;100242.44;;;19.88;63.16
25650;BME280;13505;45.196;5.696;2022-10-28T09:55:18;100251.38;;;20.02;64.14
25650;BME280;13505;45.196;5.696;2022-10-28T10:00:13;100247.00;;;20.01;62.76
25650;BME280;13505;45.196;5.696;2022-10-28T10:05:16;100245.41;;;20.11;64.49
25650;BME280;13505;45.196;5.696;2022-10-28T10:10:16;100243.13;;;20.83;67.00
25650;BME280;13505;45.196;5.696;2022-10-28T10:15:18;100238.06;;;21.15;64.14
25650;BME280;13505;45.196;5.696;2022-10-28T10:20:20;100245.34;;;21.26;64.02
25650;BME280;13505;45.196;5.696;2022-10-28T10:30:13;100223.72;;;21.77;60.27
25650;BME280;13505;45.196;5.696;2022-10-28T10:40:27;100212.22;;;22.44;55.84
25650;BME280;13505;45.196;5.696;2022-10-28T10:45:26;100207.38;;;22.50;55.72
25650;BME280;13505;45.196;5.696;2022-10-28T10:50:20;100200.56;;;21.87;56.16
25650;BME280;13505;45.196;5.696;2022-10-28T10:55:19;100194.41;;;21.38;56.08
25650;BME280;13505;45.196;5.696;2022-10-28T11:00:14;100184.41;;;21.40;57.84
25650;BME280;13505;45.196;5.696;2022-10-28T11:05:08;100177.69;;;21.34;57.42
25650;BME280;13505;45.196;5.696;2022-10-28T11:09:59;100175.00;;;21.34;55.96
25650;BME280;13505;45.196;5.696;2022-10-28T11:14:58;100166.28;;;21.19;55.96
25650;BME280;13505;45.196;5.696;2022-10-28T11:19:53;100152.47;;;21.72;57.16
25650;BME280;13505;45.196;5.696;2022-10-28T11:30:14;100129.75;;;22.68;55.55
25650;BME280;13505;45.196;5.696;2022-10-28T11:35:19;100117.69;;;22.51;54.40
25650;BME280;13505;45.196;5.696;2022-10-28T11:45:28;100103.41;;;23.16;56.83
25650;BME280;13505;45.196;5.696;2022-10-28T12:10:29;100074.72;;;23.59;53.39
25650;BME280;13505;45.196;5.696;2022-10-28T12:25:32;100049.16;;;24.15;50.05
25650;BME280;13505;45.196;5.696;2022-10-28T12:30:30;100043.00;;;24.03;49.99
25650;BME280;13505;45.196;5.696;2022-10-28T12:35:28;100044.13;;;24.01;49.19
25650;BME280;13505;45.196;5.696;2022-10-28T12:40:26;100049.56;;;24.10;50.32
25650;BME280;13505;45.196;5.696;2022-10-28T12:45:20;100039.81;;;24.19;51.04
25650;BME280;13505;45.196;5.696;2022-10-28T12:55:44;100034.19;;;24.42;51.65
25650;BME280;13505;45.196;5.696;2022-10-28T13:00:41;100033.16;;;24.23;51.76
25650;BME280;13505;45.196;5.696;2022-10-28T13:05:38;100018.75;;;24.03;53.92
25650;BME280;13505;45.196;5.696;2022-10-28T13:15:34;100003.63;;;23.81;55.95
25650;BME280;13505;45.196;5.696;2022-10-28T13:20:58;100012.78;;;23.59;57.96
25650;BME280;13505;45.196;5.696;2022-10-28T13:26:05;100001.25;;;23.88;58.69
25650;BME280;13505;45.196;5.696;2022-10-28T13:30:59;100005.19;;;24.24;57.60
25650;BME280;13505;45.196;5.696;2022-10-28T13:35:51;100001.00;;;23.91;58.87
25650;BME280;13505;45.196;5.696;2022-10-28T13:45:50;100000.81;;;23.82;60.02
25650;BME280;13505;45.196;5.696;2022-10-28T13:50:41;99996.25;;;23.73;61.01
25650;BME280;13505;45.196;5.696;2022-10-28T13:55:42;99995.16;;;23.86;60.91
25650;BME280;13505;45.196;5.696;2022-10-28T14:00:35;100005.22;;;23.83;61.12
25650;BME280;13505;45.196;5.696;2022-10-28T14:10:24;99987.94;;;23.86;60.55
25650;BME280;13505;45.196;5.696;2022-10-28T14:15:18;99988.56;;;23.68;62.00
25650;BME280;13505;45.196;5.696;2022-10-28T14:20:23;99986.66;;;23.49;63.56
25650;BME280;13505;45.196;5.696;2022-10-28T14:30:33;99989.63;;;23.25;65.05
25650;BME280;13505;45.196;5.696;2022-10-28T14:35:50;99986.41;;;23.10;64.61
25650;BME280;13505;45.196;5.696;2022-10-28T14:45:53;99976.50;;;22.89;64.90
25650;BME280;13505;45.196;5.696;2022-10-28T14:50:50;99984.16;;;22.72;65.60
25650;BME280;13505;45.196;5.696;2022-10-28T14:55:44;99983.66;;;22.57;65.07
25650;BME280;13505;45.196;5.696;2022-10-28T15:00:39;99985.97;;;22.51;64.44
25650;BME280;13505;45.196;5.696;2022-10-28T15:05:33;99993.81;;;22.42;67.03
25650;BME280;13505;45.196;5.696;2022-10-28T15:10:28;100003.72;;;22.30;66.57
25650;BME280;13505;45.196;5.696;2022-10-28T15:20:24;99994.34;;;22.25;68.17
25650;BME280;13505;45.196;5.696;2022-10-28T15:25:18;99988.47;;;22.20;68.21
25650;BME280;13505;45.196;5.696;2022-10-28T15:30:14;99998.75;;;22.14;68.87
25650;BME280;13505;45.196;5.696;2022-10-28T15:40:32;99993.31;;;21.82;72.26
25650;BME280;13505;45.196;5.696;2022-10-28T15:45:26;99992.09;;;21.63;73.04
25650;BME280;13505;45.196;5.696;2022-10-28T16:00:28;99999.91;;;20.96;78.71
25650;BME280;13505;45.196;5.696;2022-10-28T16:10:22;100001.13;;;20.68;79.30
25650;BME280;13505;45.196;5.696;2022-10-28T16:15:13;100013.91;;;20.64;78.63
25650;BME280;13505;45.196;5.696;2022-10-28T16:20:13;100023.38;;;20.57;78.84
25650;BME280;13505;45.196;5.696;2022-10-28T16:25:14;100031.00;;;20.50;79.13
25650;BME280;13505;45.196;5.696;2022-10-28T16:30:05;100042.06;;;20.45;79.25
25650;BME280;13505;45.196;5.696;2022-10-28T16:34:56;100039.00;;;20.39;79.34
25650;BME280;13505;45.196;5.696;2022-10-28T16:39:49;100048.44;;;20.31;78.30
25650;BME280;13505;45.196;5.696;2022-10-28T16:44:39;100043.53;;;20.25;77.57
25650;BME280;13505;45.196;5.696;2022-10-28T16:49:30;100055.44;;;20.21;76.38
25650;BME280;13505;45.196;5.696;2022-10-28T16:54:20;100056.88;;;20.14;76.93
25650;BME280;13505;45.196;5.696;2022-10-28T16:59:10;100058.03;;;20.10;77.17
25650;BME280;13505;45.196;5.696;2022-10-28T17:04:03;100062.56;;;20.09;77.78
25650;BME280;13505;45.196;5.696;2022-10-28T17:08:54;100066.06;;;20.10;77.75
25650;BME280;13505;45.196;5.696;2022-10-28T17:13:44;100074.97;;;20.10;78.20
25650;BME280;13505;45.196;5.696;2022-10-28T17:18:34;100080.44;;;20.08;78.87
25650;BME280;13505;45.196;5.696;2022-10-28T17:23:25;100095.66;;;20.08;79.23
25650;BME280;13505;45.196;5.696;2022-10-28T17:28:15;100099.28;;;20.07;79.80
25650;BME280;13505;45.196;5.696;2022-10-28T17:33:05;100107.31;;;20.07;79.84
25650;BME280;13505;45.196;5.696;2022-10-28T17:37:57;100105.59;;;20.06;80.08
25650;BME280;13505;45.196;5.696;2022-10-28T17:42:47;100112.03;;;20.03;80.86
25650;BME280;13505;45.196;5.696;2022-10-28T17:47:38;100113.94;;;20.01;80.99
25650;BME280;13505;45.196;5.696;2022-10-28T17:52:28;100114.59;;;20.05;80.68
25650;BME280;13505;45.196;5.696;2022-10-28T17:57:19;100125.31;;;20.05;80.58
25650;BME280;13505;45.196;5.696;2022-10-28T18:02:10;100128.53;;;19.97;80.26
25650;BME280;13505;45.196;5.696;2022-10-28T18:07:03;100138.59;;;19.93;81.07
25650;BME280;13505;45.196;5.696;2022-10-28T18:11:53;100150.91;;;19.96;80.44
25650;BME280;13505;45.196;5.696;2022-10-28T18:16:43;100153.56;;;19.83;81.27
25650;BME280;13505;45.196;5.696;2022-10-28T18:21:39;100154.19;;;19.74;81.93
25650;BME280;13505;45.196;5.696;2022-10-28T18:26:30;100168.44;;;19.74;81.30
25650;BME280;13505;45.196;5.696;2022-10-28T18:31:21;100159.84;;;19.69;81.44
25650;BME280;13505;45.196;5.696;2022-10-28T18:36:15;100170.13;;;19.62;79.08
25650;BME280;13505;45.196;5.696;2022-10-28T18:41:13;100185.53;;;19.59;78.27
25650;BME280;13505;45.196;5.696;2022-10-28T18:46:04;100187.75;;;19.52;79.93
25650;BME280;13505;45.196;5.696;2022-10-28T18:51:02;100189.47;;;19.40;79.79
25650;BME280;13505;45.196;5.696;2022-10-28T18:55:59;100185.38;;;19.34;80.33
25650;BME280;13505;45.196;5.696;2022-10-28T19:00:49;100190.09;;;19.31;77.81
25650;BME280;13505;45.196;5.696;2022-10-28T19:05:40;100191.13;;;19.28;79.09
25650;BME280;13505;45.196;5.696;2022-10-28T19:10:30;100187.91;;;19.23;79.45
25650;BME280;13505;45.196;5.696;2022-10-28T19:15:20;100185.13;;;19.24;79.97
25650;BME280;13505;45.196;5.696;2022-10-28T19:20:11;100179.63;;;19.13;79.19
25650;BME280;13505;45.196;5.696;2022-10-28T19:25:01;100175.44;;;18.94;78.98
25650;BME280;13505;45.196;5.696;2022-10-28T19:29:51;100166.63;;;18.79;79.77
25650;BME280;13505;45.196;5.696;2022-10-28T19:34:42;100172.81;;;18.80;81.42
25650;BME280;13505;45.196;5.696;2022-10-28T19:39:32;100162.72;;;18.71;80.68
25650;BME280;13505;45.196;5.696;2022-10-28T19:44:22;100162.47;;;18.61;81.29
25650;BME280;13505;45.196;5.696;2022-10-28T19:49:13;100152.16;;;18.54;80.89
25650;BME280;13505;45.196;5.696;2022-10-28T19:54:06;100158.84;;;18.47;80.80
25650;BME280;13505;45.196;5.696;2022-10-28T19:58:58;100159.63;;;18.49;80.59
25650;BME280;13505;45.196;5.696;2022-10-28T20:03:49;100148.38;;;18.59;80.74
25650;BME280;13505;45.196;5.696;2022-10-28T20:08:42;100152.59;;;18.48;80.61
25650;BME280;13505;45.196;5.696;2022-10-28T20:13:34;100186.53;;;18.46;81.75
25650;BME280;13505;45.196;5.696;2022-10-28T20:18:24;100171.53;;;18.58;80.41
25650;BME280;13505;45.196;5.696;2022-10-28T20:23:15;100157.31;;;18.58;81.60
25650;BME280;13505;45.196;5.696;2022-10-28T20:28:05;100152.75;;;18.60;83.04
25650;BME280;13505;45.196;5.696;2022-10-28T20:32:55;100164.94;;;18.64;82.24
25650;BME280;13505;45.196;5.696;2022-10-28T20:37:46;100173.34;;;18.58;82.71
25650;BME280;13505;45.196;5.696;2022-10-28T20:42:36;100155.38;;;18.32;81.36
25650;BME280;13505;45.196;5.696;2022-10-28T20:47:26;100168.91;;;18.15;81.65
25650;BME280;13505;45.196;5.696;2022-10-28T20:52:17;100167.66;;;18.20;82.44
25650;BME280;13505;45.196;5.696;2022-10-28T20:57:07;100157.19;;;18.17;83.03
25650;BME280;13505;45.196;5.696;2022-10-28T21:01:57;100170.88;;;18.25;81.23
25650;BME280;13505;45.196;5.696;2022-10-28T21:06:48;100164.69;;;18.10;80.72
25650;BME280;13505;45.196;5.696;2022-10-28T21:11:38;100159.22;;;17.97;80.15
25650;BME280;13505;45.196;5.696;2022-10-28T21:16:29;100151.94;;;18.16;79.43
25650;BME280;13505;45.196;5.696;2022-10-28T21:21:21;100158.31;;;18.13;80.31
25650;BME280;13505;45.196;5.696;2022-10-28T21:26:11;100148.88;;;18.07;83.42
25650;BME280;13505;45.196;5.696;2022-10-28T21:31:12;100161.47;;;18.05;85.32
25650;BME280;13505;45.196;5.696;2022-10-28T21:36:05;100170.41;;;18.04;85.35
25650;BME280;13505;45.196;5.696;2022-10-28T21:45:52;100162.47;;;17.88;82.32
25650;BME280;13505;45.196;5.696;2022-10-28T21:50:51;100168.28;;;17.80;82.45
25650;BME280;13505;45.196;5.696;2022-10-28T21:55:42;100183.38;;;17.65;82.72
